createdAt,value
2019-02-05T00:00:56.791Z,82.91
2019-02-05T00:03:24.816Z,82.87
2019-02-05T00:05:52.776Z,83.01
2019-02-05T00:08:21.370Z,83.31
2019-02-05T00:10:49.323Z,83.36
2019-02-05T00:13:18.994Z,83.50
2019-02-05T00:15:46.932Z,83.52
2019-02-05T00:18:14.806Z,83.60
2019-02-05T00:20:42.953Z,83.30
2019-02-05T00:23:10.898Z,82.83
2019-02-05T00:25:38.921Z,82.91
2019-02-05T00:28:07.302Z,82.68
2019-02-05T00:30:35.304Z,82.63
2019-02-05T00:33:03.528Z,82.68
2019-02-05T00:35:31.386Z,82.48
2019-02-05T00:37:59.389Z,82.48
2019-02-05T00:40:27.338Z,82.69
2019-02-05T00:42:55.377Z,82.49
2019-02-05T00:45:23.585Z,82.28
2019-02-05T00:47:51.452Z,82.57
2019-02-05T00:50:19.753Z,82.51
2019-02-05T00:52:47.901Z,82.36
2019-02-05T00:55:16.065Z,82.53
2019-02-05T00:57:44.671Z,82.75
2019-02-05T01:00:24.261Z,82.59
2019-02-05T01:02:52.287Z,82.92
2019-02-05T01:05:20.477Z,83.01
2019-02-05T01:07:48.721Z,82.79
2019-02-05T01:10:17.195Z,82.40
2019-02-05T01:12:45.203Z,82.60
2019-02-05T01:15:15.013Z,82.21
2019-02-05T01:17:42.971Z,82.30
2019-02-05T01:20:13.529Z,82.29
2019-02-05T01:22:41.491Z,82.35
2019-02-05T01:25:09.629Z,82.57
2019-02-05T01:27:37.592Z,82.37
2019-02-05T01:30:06.925Z,82.73
2019-02-05T01:32:34.814Z,82.88
2019-02-05T01:35:04.110Z,83.18
2019-02-05T01:37:32.050Z,83.40
2019-02-05T01:39:59.897Z,83.47
2019-02-05T01:42:27.937Z,83.13
2019-02-05T01:44:56.291Z,83.02
2019-02-05T01:47:24.252Z,82.69
2019-02-05T01:49:52.263Z,82.47
2019-02-05T01:52:20.286Z,82.36
2019-02-05T01:54:48.115Z,82.04
2019-02-05T01:57:15.990Z,81.23
2019-02-05T01:59:43.819Z,81.19
2019-02-05T02:02:12.211Z,81.56
2019-02-05T02:04:39.962Z,81.80
2019-02-05T02:07:08.494Z,82.04
2019-02-05T02:09:38.924Z,81.86
2019-02-05T02:12:06.999Z,81.75
2019-02-05T02:14:34.927Z,81.51
2019-02-05T02:17:03.000Z,81.68
2019-02-05T02:19:32.879Z,81.80
2019-02-05T02:22:00.785Z,82.33
2019-02-05T02:24:28.736Z,82.25
2019-02-05T02:26:56.791Z,82.30
2019-02-05T02:29:24.769Z,82.19
2019-02-05T02:31:52.792Z,82.20
2019-02-05T02:34:20.615Z,82.48
2019-02-05T02:36:48.465Z,82.32
2019-02-05T02:39:16.288Z,82.16
2019-02-05T02:41:44.245Z,82.11
2019-02-05T02:44:12.073Z,81.71
2019-02-05T02:46:39.903Z,81.46
2019-02-05T02:49:07.874Z,81.51
2019-02-05T02:51:36.180Z,81.41
2019-02-05T02:54:04.357Z,81.42
2019-02-05T02:56:32.370Z,81.20
2019-02-05T02:59:00.384Z,81.21
2019-02-05T03:01:28.319Z,81.16
2019-02-05T03:03:56.115Z,80.99
2019-02-05T03:06:23.874Z,80.90
2019-02-05T03:08:51.768Z,80.74
2019-02-05T03:11:19.733Z,80.69
2019-02-05T03:13:47.720Z,80.82
2019-02-05T03:16:15.580Z,80.78
2019-02-05T03:18:44.032Z,80.56
2019-02-05T03:21:11.787Z,80.54
2019-02-05T03:23:39.523Z,80.54
2019-02-05T03:26:07.578Z,80.30
2019-02-05T03:28:35.522Z,80.40
2019-02-05T03:31:03.890Z,80.35
2019-02-05T03:33:31.743Z,79.63
2019-02-05T03:35:59.857Z,79.88
2019-02-05T03:38:27.728Z,79.65
2019-02-05T03:41:03.971Z,79.92
2019-02-05T03:43:32.729Z,80.49
2019-02-05T03:46:02.662Z,80.37
2019-02-05T03:48:32.567Z,80.29
2019-02-05T03:51:27.582Z,79.74
2019-02-05T03:54:06.440Z,79.63
2019-02-05T03:57:04.301Z,79.22
2019-02-05T04:00:07.963Z,79.65
2019-02-05T04:02:53.094Z,81.33
2019-02-05T04:06:13.639Z,81.29
2019-02-05T04:09:05.023Z,80.65
2019-02-05T04:12:01.501Z,81.27
2019-02-05T04:14:49.062Z,81.74
2019-02-05T04:18:06.271Z,81.96
2019-02-05T04:21:14.249Z,81.52
2019-02-05T04:24:25.164Z,81.46
2019-02-05T04:27:43.388Z,81.19
2019-02-05T04:30:44.645Z,80.74
2019-02-05T04:33:35.022Z,80.93
2019-02-05T04:36:43.338Z,81.13
2019-02-05T04:39:52.925Z,80.65
2019-02-05T04:42:59.811Z,80.24
2019-02-05T04:46:00.605Z,80.05
2019-02-05T04:49:00.667Z,79.25
2019-02-05T04:52:06.015Z,79.27
2019-02-05T04:55:33.769Z,80.15
2019-02-05T04:58:12.422Z,80.86
2019-02-05T05:01:04.380Z,81.03
2019-02-05T05:04:12.650Z,81.27
2019-02-05T05:07:16.766Z,81.24
2019-02-05T05:09:59.036Z,81.88
2019-02-05T05:12:28.269Z,82.65
2019-02-05T05:14:56.364Z,81.90
2019-02-05T05:17:24.099Z,81.79
2019-02-05T05:19:52.393Z,81.72
2019-02-05T05:22:20.416Z,80.93
2019-02-05T05:24:48.873Z,80.94
2019-02-05T05:27:19.014Z,80.81
2019-02-05T05:29:47.669Z,80.97
2019-02-05T05:32:16.542Z,80.85
2019-02-05T05:34:44.574Z,81.06
2019-02-05T05:37:11.037Z,81.26
2019-02-05T05:39:38.975Z,81.33
2019-02-05T05:42:06.833Z,80.99
2019-02-05T05:44:35.568Z,81.29
2019-02-05T05:47:04.463Z,81.62
2019-02-05T05:49:32.764Z,81.42
2019-02-05T05:52:00.642Z,81.29
2019-02-05T05:54:28.732Z,81.23
2019-02-05T05:56:56.659Z,81.04
2019-02-05T05:59:24.523Z,80.88
2019-02-05T06:01:52.497Z,80.92
2019-02-05T06:04:20.760Z,80.85
2019-02-05T06:06:48.528Z,80.27
2019-02-05T06:09:16.449Z,80.45
2019-02-05T06:11:44.392Z,80.26
2019-02-05T06:14:12.426Z,80.28
2019-02-05T06:16:40.277Z,79.90
2019-02-05T06:19:08.731Z,80.38
2019-02-05T06:21:36.662Z,80.54
2019-02-05T06:24:05.080Z,80.24
2019-02-05T06:26:33.184Z,81.63
2019-02-05T06:29:01.168Z,81.09
2019-02-05T06:31:29.014Z,80.66
2019-02-05T06:33:56.938Z,80.18
2019-02-05T06:36:24.660Z,80.08
2019-02-05T06:38:52.675Z,79.97
2019-02-05T06:41:20.801Z,80.00
2019-02-05T06:43:48.794Z,79.79
2019-02-05T06:46:16.604Z,79.56
2019-02-05T06:48:44.588Z,79.84
2019-02-05T06:51:12.819Z,79.55
2019-02-05T06:53:40.631Z,79.83
2019-02-05T06:56:08.527Z,79.67
2019-02-05T06:58:46.146Z,79.60
2019-02-05T07:01:06.700Z,79.79
2019-02-05T07:03:34.793Z,79.43
2019-02-05T07:06:02.728Z,79.82
2019-02-05T07:08:31.200Z,79.75
2019-02-05T07:10:59.219Z,80.07
2019-02-05T07:13:27.173Z,80.26
2019-02-05T07:15:55.264Z,80.50
2019-02-05T07:18:23.035Z,80.01
2019-02-05T07:20:50.876Z,80.46
2019-02-05T07:23:18.705Z,80.96
2019-02-05T07:25:47.637Z,81.04
2019-02-05T07:28:15.466Z,81.30
2019-02-05T07:30:43.326Z,81.41
2019-02-05T07:33:11.506Z,81.37
2019-02-05T07:35:39.737Z,81.49
2019-02-05T07:38:07.676Z,81.49
2019-02-05T07:40:35.703Z,81.15
2019-02-05T07:43:03.990Z,81.37
2019-02-05T07:45:32.068Z,81.34
2019-02-05T07:47:59.855Z,80.60
2019-02-05T07:50:27.806Z,80.45
2019-02-05T07:52:55.854Z,80.68
2019-02-05T07:55:24.369Z,80.71
2019-02-05T07:57:52.313Z,80.46
2019-02-05T08:00:22.884Z,80.28
2019-02-05T08:02:50.649Z,79.88
2019-02-05T08:05:20.906Z,80.28
2019-02-05T08:07:49.583Z,80.53
2019-02-05T08:10:19.223Z,80.46
2019-02-05T08:12:47.643Z,80.33
2019-02-05T08:15:17.643Z,78.89
2019-02-05T08:17:45.737Z,79.12
2019-02-05T08:20:13.695Z,79.29
2019-02-05T08:22:41.646Z,79.58
2019-02-05T08:25:11.189Z,79.13
2019-02-05T08:27:39.118Z,79.72
2019-02-05T08:30:17.634Z,80.01
2019-02-05T08:32:45.501Z,80.16
2019-02-05T08:35:15.052Z,80.00
2019-02-05T08:37:42.987Z,80.63
2019-02-05T08:40:13.749Z,80.36
2019-02-05T08:42:42.184Z,80.07
2019-02-05T08:45:14.273Z,80.02
2019-02-05T08:47:42.197Z,80.45
2019-02-05T08:50:12.786Z,80.71
2019-02-05T08:52:40.752Z,81.18
2019-02-05T08:55:10.021Z,81.17
2019-02-05T08:57:49.857Z,81.13
2019-02-05T09:00:25.914Z,81.34
2019-02-05T09:02:54.360Z,81.68
2019-02-05T09:05:22.416Z,81.39
2019-02-05T09:07:50.395Z,81.05
2019-02-05T09:10:21.294Z,80.71
2019-02-05T09:12:49.986Z,81.17
2019-02-05T09:15:28.867Z,80.51
2019-02-05T09:17:47.672Z,79.99
2019-02-05T09:20:16.354Z,79.97
2019-02-05T09:22:44.501Z,79.73
2019-02-05T09:25:12.714Z,79.84
2019-02-05T09:27:40.577Z,79.71
2019-02-05T09:30:14.135Z,79.78
2019-02-05T09:32:42.090Z,79.30
2019-02-05T09:35:10.520Z,78.83
2019-02-05T09:37:38.385Z,77.96
2019-02-05T09:40:08.937Z,77.73
2019-02-05T09:42:36.799Z,78.33
2019-02-05T09:45:05.630Z,78.24
2019-02-05T09:47:33.626Z,77.92
2019-02-05T09:50:01.474Z,76.96
2019-02-05T09:52:29.784Z,77.14
2019-02-05T09:54:57.661Z,77.06
2019-02-05T09:57:25.723Z,76.86
2019-02-05T09:59:53.534Z,76.81
2019-02-05T10:02:21.429Z,77.08
2019-02-05T10:04:49.229Z,76.42
2019-02-05T10:07:17.078Z,76.15
2019-02-05T10:09:45.505Z,75.98
2019-02-05T10:12:13.728Z,76.17
2019-02-05T10:14:42.481Z,76.50
2019-02-05T10:17:10.502Z,76.27
2019-02-05T10:19:38.241Z,76.38
2019-02-05T10:22:06.216Z,76.28
2019-02-05T10:24:34.142Z,76.12
2019-02-05T10:27:01.949Z,76.61
2019-02-05T10:29:29.783Z,76.53
2019-02-05T10:31:57.680Z,75.89
2019-02-05T10:34:33.856Z,75.98
2019-02-05T10:36:55.385Z,75.89
2019-02-05T10:39:23.302Z,75.94
2019-02-05T10:41:51.372Z,75.93
2019-02-05T10:44:20.384Z,76.11
2019-02-05T10:46:48.228Z,75.66
2019-02-05T10:49:16.107Z,75.56
2019-02-05T10:51:44.115Z,75.56
2019-02-05T10:54:11.896Z,75.46
2019-02-05T10:56:39.841Z,75.46
2019-02-05T10:59:07.808Z,75.07
2019-02-05T11:01:36.144Z,74.78
2019-02-05T11:04:04.113Z,74.46
2019-02-05T11:06:32.144Z,74.33
2019-02-05T11:08:59.932Z,73.99
2019-02-05T11:11:27.808Z,73.21
2019-02-05T11:13:55.734Z,72.49
2019-02-05T11:16:23.493Z,72.93
2019-02-05T11:18:51.311Z,72.11
2019-02-05T11:21:19.288Z,71.80
2019-02-05T11:23:47.040Z,71.23
2019-02-05T11:26:15.243Z,70.95
2019-02-05T11:28:43.074Z,70.53
2019-02-05T11:31:10.972Z,70.08
2019-02-05T11:33:38.838Z,68.55
2019-02-05T11:36:06.877Z,68.23
2019-02-05T11:38:34.632Z,68.38
2019-02-05T11:41:02.571Z,67.35
2019-02-05T11:43:30.409Z,67.55
2019-02-05T11:45:58.455Z,66.60
2019-02-05T11:48:26.511Z,66.07
2019-02-05T11:50:54.377Z,64.90
2019-02-05T11:53:22.275Z,64.82
2019-02-05T11:55:50.266Z,62.21
2019-02-05T11:58:18.001Z,61.39
2019-02-05T12:00:50.700Z,64.39
2019-02-05T12:03:19.429Z,61.85
2019-02-05T12:05:47.487Z,63.52
2019-02-05T12:08:18.476Z,62.50
2019-02-05T12:10:45.681Z,62.01
2019-02-05T12:13:13.599Z,62.73
2019-02-05T12:15:41.753Z,62.09
2019-02-05T12:18:09.777Z,62.20
2019-02-05T12:20:37.729Z,61.00
2019-02-05T12:23:05.937Z,59.01
2019-02-05T12:25:34.512Z,59.99
2019-02-05T12:28:02.582Z,59.45
2019-02-05T12:30:43.812Z,58.35
2019-02-05T12:33:02.779Z,56.52
2019-02-05T12:35:30.817Z,59.92
2019-02-05T12:37:58.767Z,58.70
2019-02-05T12:40:26.893Z,59.00
2019-02-05T12:42:54.864Z,59.07
2019-02-05T12:45:25.065Z,58.11
2019-02-05T12:47:52.993Z,57.46
2019-02-05T12:50:25.274Z,57.12
2019-02-05T12:52:53.507Z,56.25
2019-02-05T12:55:22.121Z,57.02
2019-02-05T12:57:50.157Z,56.13
2019-02-05T13:00:24.047Z,55.04
2019-02-05T13:02:54.415Z,55.69
2019-02-05T13:05:22.112Z,55.36
2019-02-05T13:07:50.084Z,55.93
2019-02-05T13:10:21.016Z,53.63
2019-02-05T13:12:48.971Z,53.31
2019-02-05T13:15:16.878Z,53.32
2019-02-05T13:17:44.767Z,53.31
2019-02-05T13:20:21.218Z,54.26
2019-02-05T13:22:49.702Z,53.92
2019-02-05T13:25:20.270Z,54.55
2019-02-05T13:27:48.420Z,54.20
2019-02-05T13:30:20.294Z,55.16
2019-02-05T13:32:48.548Z,54.61
2019-02-05T13:35:17.765Z,55.89
2019-02-05T13:37:45.761Z,56.35
2019-02-05T13:40:16.156Z,56.22
2019-02-05T13:42:44.143Z,55.82
2019-02-05T13:45:14.370Z,55.68
2019-02-05T13:47:42.362Z,55.63
2019-02-05T13:50:14.027Z,55.58
2019-02-05T13:52:42.052Z,54.24
2019-02-05T13:55:11.396Z,55.00
2019-02-05T13:57:39.582Z,55.27
2019-02-05T14:00:12.883Z,54.17
2019-02-05T14:02:41.079Z,54.37
2019-02-05T14:05:09.583Z,55.32
2019-02-05T14:07:37.673Z,55.88
2019-02-05T14:10:09.239Z,56.26
2019-02-05T14:12:37.136Z,55.95
2019-02-05T14:15:06.222Z,56.68
2019-02-05T14:17:34.185Z,57.01
2019-02-05T14:20:02.212Z,57.15
2019-02-05T14:22:29.995Z,57.63
2019-02-05T14:24:58.401Z,58.44
2019-02-05T14:27:26.322Z,58.72
2019-02-05T14:29:54.109Z,59.18
2019-02-05T14:32:21.962Z,59.33
2019-02-05T14:34:49.824Z,59.44
2019-02-05T14:37:17.868Z,58.92
2019-02-05T14:39:45.630Z,59.61
2019-02-05T14:42:14.886Z,59.95
2019-02-05T14:44:43.382Z,60.27
2019-02-05T14:47:11.255Z,60.96
2019-02-05T14:49:39.119Z,60.87
2019-02-05T14:52:07.008Z,61.17
2019-02-05T14:54:34.900Z,61.08
2019-02-05T14:57:02.849Z,61.89
2019-02-05T14:59:32.117Z,61.64
2019-02-05T15:02:00.126Z,61.71
2019-02-05T15:04:28.792Z,62.44
2019-02-05T15:06:56.756Z,62.18
2019-02-05T15:09:24.637Z,62.08
2019-02-05T15:11:57.369Z,62.17
2019-02-05T15:14:25.360Z,62.70
2019-02-05T15:16:53.115Z,62.61
2019-02-05T15:19:21.160Z,62.74
2019-02-05T15:21:49.014Z,62.85
2019-02-05T15:24:17.098Z,62.38
2019-02-05T15:26:45.006Z,62.63
2019-02-05T15:29:12.796Z,63.12
2019-02-05T15:31:40.767Z,63.32
2019-02-05T15:34:18.409Z,63.70
2019-02-05T15:36:48.525Z,64.00
2019-02-05T15:39:16.684Z,64.31
2019-02-05T15:41:44.894Z,64.47
2019-02-05T15:44:13.354Z,64.47
2019-02-05T15:46:42.024Z,64.37
2019-02-05T15:49:10.051Z,64.56
2019-02-05T15:51:37.936Z,64.71
2019-02-05T15:54:06.065Z,64.91
2019-02-05T15:56:34.105Z,64.96
2019-02-05T15:59:02.089Z,65.02
2019-02-05T16:01:30.115Z,65.09
2019-02-05T16:03:58.199Z,65.13
2019-02-05T16:06:27.669Z,64.85
2019-02-05T16:08:55.549Z,64.50
2019-02-05T16:11:23.403Z,64.28
2019-02-05T16:13:56.417Z,64.39
2019-02-05T16:16:24.597Z,64.24
2019-02-05T16:18:53.453Z,63.67
2019-02-05T16:21:26.699Z,64.07
2019-02-05T16:23:54.666Z,63.73
2019-02-05T16:26:22.647Z,64.36
2019-02-05T16:28:50.629Z,64.63
2019-02-05T16:31:18.841Z,64.37
2019-02-05T16:33:46.716Z,64.98
2019-02-05T16:36:15.452Z,65.05
2019-02-05T16:38:43.408Z,65.35
2019-02-05T16:41:11.423Z,65.70
2019-02-05T16:43:39.190Z,65.98
2019-02-05T16:46:07.089Z,66.13
2019-02-05T16:48:35.322Z,65.93
2019-02-05T16:51:03.500Z,65.89
2019-02-05T16:53:31.399Z,66.26
2019-02-05T16:56:00.991Z,66.29
2019-02-05T16:58:29.091Z,66.68
2019-02-05T17:00:56.843Z,66.87
2019-02-05T17:03:24.674Z,67.02
2019-02-05T17:05:52.946Z,67.07
2019-02-05T17:08:20.814Z,67.37
2019-02-05T17:10:50.621Z,67.46
2019-02-05T17:13:18.607Z,68.02
2019-02-05T17:15:49.170Z,67.56
2019-02-05T17:18:23.653Z,67.48
2019-02-05T17:20:47.608Z,67.37
2019-02-05T17:23:15.635Z,67.41
2019-02-05T17:25:43.667Z,67.46
2019-02-05T17:28:11.646Z,67.71
2019-02-05T17:30:39.725Z,67.84
2019-02-05T17:33:07.655Z,68.75
2019-02-05T17:35:35.980Z,68.31
2019-02-05T17:38:06.635Z,68.78
2019-02-05T17:40:34.858Z,68.80
2019-02-05T17:43:02.705Z,71.13
2019-02-05T17:45:35.772Z,70.34
2019-02-05T17:48:06.844Z,70.93
2019-02-05T17:50:34.775Z,70.22
2019-02-05T17:53:03.464Z,70.17
2019-02-05T17:55:31.330Z,71.52
2019-02-05T17:57:59.410Z,72.04
2019-02-05T18:00:36.763Z,71.31
2019-02-05T18:03:04.923Z,72.04
2019-02-05T18:05:34.879Z,72.44
2019-02-05T18:08:02.734Z,72.03
2019-02-05T18:10:30.645Z,72.02
2019-02-05T18:12:58.422Z,72.06
2019-02-05T18:15:28.949Z,71.88
2019-02-05T18:18:01.855Z,72.16
2019-02-05T18:20:29.906Z,72.21
2019-02-05T18:22:57.811Z,72.83
2019-02-05T18:25:25.755Z,72.72
2019-02-05T18:27:53.763Z,74.38
2019-02-05T18:30:24.401Z,73.84
2019-02-05T18:33:02.798Z,73.78
2019-02-05T18:35:22.406Z,74.07
2019-02-05T18:37:51.007Z,74.83
2019-02-05T18:40:20.361Z,74.19
2019-02-05T18:42:48.451Z,73.66
2019-02-05T18:45:16.842Z,74.45
2019-02-05T18:47:46.141Z,73.74
2019-02-05T18:50:19.915Z,73.95
2019-02-05T18:52:47.993Z,74.01
2019-02-05T18:55:15.957Z,74.75
2019-02-05T18:57:44.104Z,74.77
2019-02-05T19:00:15.949Z,74.95
2019-02-05T19:02:43.843Z,75.18
2019-02-05T19:05:12.220Z,75.02
2019-02-05T19:07:41.298Z,74.77
2019-02-05T19:10:12.066Z,74.31
2019-02-05T19:12:39.932Z,75.32
2019-02-05T19:15:15.685Z,75.43
2019-02-05T19:17:43.688Z,74.67
2019-02-05T19:20:14.758Z,74.71
2019-02-05T19:22:42.918Z,75.55
2019-02-05T19:25:20.809Z,76.32
2019-02-05T19:27:49.182Z,76.48
2019-02-05T19:30:18.389Z,76.41
2019-02-05T19:32:46.444Z,77.03
2019-02-05T19:35:14.798Z,75.85
2019-02-05T19:37:42.721Z,75.62
2019-02-05T19:40:10.886Z,75.90
2019-02-05T19:42:38.817Z,75.64
2019-02-05T19:45:25.286Z,76.62
2019-02-05T19:47:53.830Z,75.50
2019-02-05T19:50:21.583Z,75.35
2019-02-05T19:52:49.499Z,75.43
2019-02-05T19:55:17.507Z,76.29
2019-02-05T19:57:45.920Z,75.57
2019-02-05T20:00:14.637Z,76.09
2019-02-05T20:02:42.649Z,76.41
2019-02-05T20:05:10.639Z,76.19
2019-02-05T20:07:38.668Z,76.21
2019-02-05T20:10:08.006Z,76.85
2019-02-05T20:12:35.924Z,76.04
2019-02-05T20:15:05.618Z,75.73
2019-02-05T20:17:33.398Z,75.52
2019-02-05T20:20:01.217Z,76.02
2019-02-05T20:22:39.614Z,75.99
2019-02-05T20:25:08.765Z,76.03
2019-02-05T20:27:36.710Z,75.78
2019-02-05T20:30:05.678Z,76.11
2019-02-05T20:32:34.147Z,75.86
2019-02-05T20:35:02.123Z,76.22
2019-02-05T20:37:30.196Z,76.14
2019-02-05T20:39:57.999Z,76.73
2019-02-05T20:42:26.276Z,76.90
2019-02-05T20:44:54.822Z,76.86
2019-02-05T20:47:22.684Z,77.45
2019-02-05T20:49:50.658Z,76.73
2019-02-05T20:52:18.559Z,77.52
2019-02-05T20:54:46.388Z,77.29
2019-02-05T20:57:14.441Z,77.01
2019-02-05T20:59:42.501Z,76.52
2019-02-05T21:02:10.915Z,76.58
2019-02-05T21:04:48.474Z,77.27
2019-02-05T21:07:11.790Z,77.58
2019-02-05T21:09:42.177Z,77.62
2019-02-05T21:12:10.089Z,77.35
2019-02-05T21:14:37.961Z,77.15
2019-02-05T21:17:05.902Z,77.02
2019-02-05T21:19:33.950Z,77.35
2019-02-05T21:22:02.017Z,76.95
2019-02-05T21:24:32.358Z,76.78
2019-02-05T21:27:00.221Z,76.64
2019-02-05T21:29:28.278Z,76.66
2019-02-05T21:31:56.211Z,77.11
2019-02-05T21:34:24.745Z,76.72
2019-02-05T21:36:52.923Z,76.91
2019-02-05T21:39:20.754Z,77.15
2019-02-05T21:41:48.532Z,77.12
2019-02-05T21:44:16.398Z,76.72
2019-02-05T21:46:44.940Z,76.60
2019-02-05T21:49:12.831Z,76.76
2019-02-05T21:51:42.636Z,76.71
2019-02-05T21:54:10.750Z,76.67
2019-02-05T21:56:38.628Z,76.62
2019-02-05T21:59:07.011Z,76.52
2019-02-05T22:01:34.883Z,76.42
2019-02-05T22:04:03.102Z,76.64
2019-02-05T22:06:31.194Z,76.30
2019-02-05T22:08:59.194Z,76.14
2019-02-05T22:11:27.286Z,76.36
2019-02-05T22:13:55.209Z,76.51
2019-02-05T22:16:23.155Z,76.49
2019-02-05T22:18:51.155Z,76.50
2019-02-05T22:21:19.921Z,76.56
2019-02-05T22:23:47.852Z,76.56
2019-02-05T22:26:15.715Z,76.50
2019-02-05T22:28:43.606Z,76.75
2019-02-05T22:31:12.026Z,76.64
2019-02-05T22:33:40.022Z,76.57
2019-02-05T22:36:08.359Z,76.74
2019-02-05T22:38:36.935Z,76.78
2019-02-05T22:41:04.976Z,76.81
2019-02-05T22:43:32.908Z,76.83
2019-02-05T22:46:00.911Z,76.85
2019-02-05T22:48:29.156Z,76.94
2019-02-05T22:50:57.246Z,76.85
2019-02-05T22:53:25.425Z,76.96
2019-02-05T22:55:54.062Z,76.71
2019-02-05T22:58:25.442Z,76.90
2019-02-05T23:01:43.709Z,76.85
2019-02-05T23:04:50.537Z,77.04
2019-02-05T23:07:14.758Z,76.92
2019-02-05T23:10:12.237Z,76.78
2019-02-05T23:12:56.148Z,76.69
2019-02-05T23:15:28.831Z,76.86
2019-02-05T23:17:55.792Z,76.86
2019-02-05T23:20:23.945Z,76.82
2019-02-05T23:22:51.903Z,76.65
2019-02-05T23:25:19.919Z,76.73
2019-02-05T23:27:48.201Z,76.86
2019-02-05T23:30:19.428Z,76.75
2019-02-05T23:32:47.360Z,76.84
2019-02-05T23:35:15.516Z,76.94
2019-02-05T23:37:44.050Z,76.86
2019-02-05T23:40:12.843Z,76.63
2019-02-05T23:42:40.780Z,76.59
2019-02-05T23:45:09.206Z,76.66
2019-02-05T23:47:37.132Z,76.74
2019-02-05T23:50:06.663Z,76.67
2019-02-05T23:52:34.397Z,76.82
2019-02-05T23:55:03.045Z,76.80
2019-02-05T23:57:30.909Z,76.94
